Accueil
METAR-TAF:

METAR-TAF

Aéroports :

Padoue, Italie

latitude: 45-23-45N, longitude: 11-50-53E, altitude: 13 m

Observation

Le bulletin a été fait il y a 4 heures et 20 minutes, à 07:00 UTC
Vent 2 kt de direction variable
Température 8°C
Humidité 87%
Pression 1016 hPa
Visibilité: 4000 m
brume

METAR: LIPU 250700Z VRB02KT 4000 BR NSC 08/06 Q1016

Heure: 12:20 (11:20 UTC)


TAF: absent

Observations et prévisions météorologiques de plus de 4000 aéroports (messages METAR et TAF).

Les stations disponibles sont représentées par des disques jaunes et rouges sur la carte.

Passer la souris dessus pour voir le nom de la station.

Cliquer dessus pour voir les observations et prévisions météorologiques.

Pour changer de carte: cliquez sur les boutons verts avec une croix noire pour zoomer, sur le bouton vert avec un tiret pour effectuer un zoom arrière, ou sur les flèches vertes pour les cartes adjacentes.


METAR-TAF: